Time;durP1;ratioP1;P1;durP2;ratioP2;P2;SDS_P1;SDS_P2;PMS_P1;PMS_P2;Temp;Humidity;BMP_temperature;BMP_pressure;BME280_temperature;BME280_humidity;BME280_pressure;Samples;Min_cycle;Max_cycle;Signal;HPM_P1;HPM_P2
2022/08/21 00:00:26;;;;;;;1.50;0.77;;;;;;;18.47;92.66;98431.53;5041730;28;20104;-59
2022/08/21 00:03:12;;;;;;;0.95;0.65;;;;;;;18.56;92.15;98430.53;5074298;28;20540;-59
2022/08/21 00:05:57;;;;;;;0.93;0.70;;;;;;;18.61;91.16;98419.44;5033654;28;20030;-58
2022/08/21 00:08:42;;;;;;;1.40;1.00;;;;;;;19.02;89.03;98415.09;5053149;28;20485;-60
2022/08/21 00:11:27;;;;;;;0.90;0.60;;;;;;;19.05;87.53;98418.22;5033893;28;20117;-58
2022/08/21 00:14:13;;;;;;;0.90;0.65;;;;;;;19.32;87.43;98426.00;5042936;28;20065;-59
2022/08/21 00:16:58;;;;;;;2.10;0.80;;;;;;;18.94;88.59;98416.78;5034076;28;20033;-59
2022/08/21 00:19:42;;;;;;;1.13;0.70;;;;;;;19.19;86.82;98418.59;5019409;28;20045;-59
2022/08/21 00:22:27;;;;;;;1.30;0.57;;;;;;;18.96;88.33;98416.59;5045117;28;20045;-60
2022/08/21 00:25:13;;;;;;;1.23;0.65;;;;;;;19.19;86.61;98411.41;5043805;28;20075;-60
2022/08/21 00:27:58;;;;;;;1.13;0.57;;;;;;;19.38;85.94;98421.84;5047763;28;20048;-59
2022/08/21 00:30:44;;;;;;;0.88;0.70;;;;;;;19.35;85.35;98411.56;5025259;28;20045;-59
2022/08/21 00:33:30;;;;;;;3.33;0.60;;;;;;;19.02;85.96;98412.44;5045626;28;20048;-60
2022/08/21 00:36:15;;;;;;;1.83;0.70;;;;;;;18.62;89.23;98399.06;5044019;28;20037;-58
2022/08/21 00:39:01;;;;;;;1.17;0.75;;;;;;;19.22;86.54;98399.66;5039446;28;20060;-57
2022/08/21 00:41:46;;;;;;;1.10;0.85;;;;;;;19.26;86.56;98395.66;5060797;28;20064;-58
2022/08/21 00:44:30;;;;;;;1.10;0.75;;;;;;;18.93;87.48;98393.06;5033350;28;20468;-62
2022/08/21 00:47:17;;;;;;;1.10;0.88;;;;;;;18.60;89.04;98391.25;5033046;28;20029;-58
2022/08/21 00:50:03;;;;;;;2.22;1.13;;;;;;;18.75;88.16;98394.09;5033170;28;20053;-61
2022/08/21 00:52:51;;;;;;;0.90;0.70;;;;;;;18.58;89.99;98398.56;5033564;28;20531;-58
2022/08/21 00:55:36;;;;;;;1.50;0.90;;;;;;;18.78;88.58;98401.69;5074344;28;20503;-58
2022/08/21 00:58:22;;;;;;;2.05;0.98;;;;;;;18.89;87.74;98386.41;5042686;28;20041;-59
2022/08/21 01:01:08;;;;;;;1.40;0.88;;;;;;;19.08;86.18;98391.34;5035326;28;20499;-59
2022/08/21 01:03:53;;;;;;;1.98;0.90;;;;;;;18.80;88.39;98386.41;5036954;28;20045;-60
2022/08/21 01:06:39;;;;;;;1.75;1.10;;;;;;;19.10;86.08;98385.06;5047320;28;20033;-59
2022/08/21 01:09:23;;;;;;;1.73;0.88;;;;;;;19.26;85.33;98385.03;5051197;28;20036;-60
2022/08/21 01:12:10;;;;;;;2.85;1.15;;;;;;;19.08;86.31;98386.03;5043650;28;20037;-59
2022/08/21 01:14:54;;;;;;;1.40;1.00;;;;;;;18.69;87.45;98362.88;5040790;28;20045;-61
2022/08/21 01:17:39;;;;;;;1.13;0.90;;;;;;;18.69;88.93;98368.19;5032626;28;20087;-59
2022/08/21 01:20:24;;;;;;;1.30;0.70;;;;;;;18.90;88.05;98361.56;5032561;28;20044;-59
2022/08/21 01:23:09;;;;;;;1.80;1.08;;;;;;;19.28;85.35;98361.78;5041338;28;20045;-60
2022/08/21 01:25:53;;;;;;;1.20;0.82;;;;;;;18.90;87.23;98365.00;5033480;28;20037;-58
2022/08/21 01:28:49;;;;;;;2.15;1.08;;;;;;;19.07;85.41;98368.47;5060597;28;20080;-58
2022/08/21 01:31:34;;;;;;;1.40;1.05;;;;;;;18.79;86.67;98354.75;5032521;28;20548;-58
2022/08/21 01:34:18;;;;;;;1.33;1.00;;;;;;;18.51;88.57;98366.56;5032172;28;20045;-60
2022/08/21 01:37:05;;;;;;;1.55;0.90;;;;;;;18.70;88.75;98353.94;5030914;28;20033;-58
2022/08/21 01:39:50;;;;;;;1.58;1.10;;;;;;;18.77;87.43;98349.63;5037238;28;20044;-59
2022/08/21 01:42:35;;;;;;;1.13;0.75;;;;;;;18.91;85.96;98363.19;5042907;28;20055;-59
2022/08/21 01:45:20;;;;;;;3.25;0.80;;;;;;;18.84;86.38;98352.44;5032056;28;20061;-58
2022/08/21 01:48:05;;;;;;;1.10;0.70;;;;;;;18.71;87.67;98355.59;5059238;28;20043;-58
2022/08/21 01:50:50;;;;;;;1.00;0.80;;;;;;;18.79;86.27;98354.75;5031768;28;20067;-58
2022/08/21 01:53:36;;;;;;;1.90;0.90;;;;;;;18.46;88.61;98345.84;5035338;28;20112;-59
2022/08/21 01:56:21;;;;;;;1.20;0.90;;;;;;;18.15;89.93;98351.81;5038368;28;20045;-58
2022/08/21 01:59:07;;;;;;;1.35;1.02;;;;;;;18.75;87.73;98348.97;5031891;28;20396;-59
2022/08/21 02:01:53;;;;;;;1.10;0.75;;;;;;;18.51;88.04;98342.69;5035495;28;20037;-60
2022/08/21 02:04:38;;;;;;;1.45;0.63;;;;;;;18.33;90.09;98327.78;5051712;28;20449;-59
2022/08/21 02:07:23;;;;;;;1.30;1.00;;;;;;;18.43;88.45;98329.44;5048660;28;20034;-59
2022/08/21 02:10:11;;;;;;;1.25;0.73;;;;;;;18.76;87.37;98329.41;5031514;28;20400;-58
2022/08/21 02:12:57;;;;;;;1.00;0.70;;;;;;;18.41;87.69;98321.66;5042051;28;20609;-59
2022/08/21 02:15:41;;;;;;;1.52;0.90;;;;;;;18.93;85.77;98311.59;5031287;28;20034;-59
2022/08/21 02:18:26;;;;;;;1.90;0.82;;;;;;;18.64;86.30;98310.34;5031407;28;20033;-58
2022/08/21 02:21:10;;;;;;;1.35;0.88;;;;;;;18.63;86.98;98319.31;5031525;28;20045;-58
2022/08/21 02:23:55;;;;;;;1.77;0.90;;;;;;;18.70;86.41;98312.31;5031429;28;20029;-59
2022/08/21 02:26:40;;;;;;;1.15;0.70;;;;;;;18.49;87.55;98307.53;5030029;28;20033;-58
2022/08/21 02:29:25;;;;;;;1.00;0.75;;;;;;;18.61;86.85;98309.84;5031482;28;20041;-58
2022/08/21 02:32:10;;;;;;;1.08;0.70;;;;;;;19.08;85.12;98314.38;5035354;28;20033;-59
2022/08/21 02:34:54;;;;;;;1.08;0.70;;;;;;;18.69;86.06;98308.03;5036394;28;20053;-59
2022/08/21 02:37:48;;;;;;;1.50;0.75;;;;;;;18.98;85.39;98303.13;5031169;28;20044;-58
2022/08/21 02:40:35;;;;;;;4.53;0.90;;;;;;;19.08;84.26;98295.78;5031300;28;20038;-58
2022/08/21 02:43:22;;;;;;;1.23;0.82;;;;;;;18.65;85.88;98298.75;5057948;28;20064;-57
2022/08/21 02:46:08;;;;;;;1.30;0.90;;;;;;;19.01;84.62;98310.75;5034174;28;20033;-59
2022/08/21 02:48:53;;;;;;;2.22;1.00;;;;;;;18.89;85.10;98301.50;5038869;28;20466;-58
2022/08/21 02:51:38;;;;;;;1.40;0.93;;;;;;;18.38;87.52;98310.56;5038500;28;20037;-58
2022/08/21 02:54:23;;;;;;;1.23;0.60;;;;;;;18.66;87.20;98305.72;5037696;28;20092;-59
2022/08/21 02:57:08;;;;;;;1.25;0.80;;;;;;;18.24;88.76;98309.41;5026368;28;20102;-59
2022/08/21 02:59:52;;;;;;;1.42;0.80;;;;;;;18.88;86.42;98306.00;5038406;28;20120;-59
2022/08/21 03:02:38;;;;;;;1.20;1.08;;;;;;;18.55;87.36;98306.06;5069091;28;20132;-58
2022/08/21 03:05:24;;;;;;;1.42;0.90;;;;;;;18.24;89.78;98312.88;5058783;28;20037;-59
2022/08/21 03:08:11;;;;;;;2.80;0.88;;;;;;;18.05;91.08;98306.06;5031131;28;20103;-60
2022/08/21 03:10:56;;;;;;;1.05;0.80;;;;;;;18.23;90.92;98305.91;5058556;28;20034;-59
2022/08/21 03:13:41;;;;;;;1.63;0.82;;;;;;;18.13;91.20;98307.91;5044613;28;20045;-58
2022/08/21 03:16:26;;;;;;;1.67;1.10;;;;;;;17.73;93.73;98306.69;5031107;28;20172;-59
2022/08/21 03:19:10;;;;;;;2.28;1.10;;;;;;;17.70;94.02;98301.72;5031070;28;20473;-59
2022/08/21 03:21:55;;;;;;;1.77;0.93;;;;;;;17.77;94.23;98304.56;5029665;28;20029;-58
2022/08/21 03:24:40;;;;;;;1.60;1.10;;;;;;;18.64;88.80;98310.34;5030107;28;20037;-58
2022/08/21 03:27:26;;;;;;;1.63;1.20;;;;;;;18.51;89.47;98321.47;5031179;28;20052;-58
2022/08/21 03:30:11;;;;;;;1.38;0.90;;;;;;;18.40;90.70;98301.44;5038214;28;20465;-58
2022/08/21 03:33:00;;;;;;;1.10;0.80;;;;;;;18.25;90.24;98306.56;5040738;28;20061;-59
2022/08/21 03:35:49;;;;;;;1.10;0.77;;;;;;;18.08;92.21;98311.03;5030970;28;20041;-58
2022/08/21 03:38:35;;;;;;;1.40;0.90;;;;;;;18.06;92.08;98313.00;5030311;28;20417;-58
2022/08/21 03:41:19;;;;;;;2.97;1.30;;;;;;;18.44;90.25;98317.84;5030056;28;20041;-59
2022/08/21 03:44:04;;;;;;;1.50;0.90;;;;;;;18.19;92.26;98313.38;5030219;28;20108;-59
2022/08/21 03:46:49;;;;;;;1.50;1.02;;;;;;;17.91;92.91;98318.97;5042886;28;20111;-58
2022/08/21 03:49:34;;;;;;;1.00;0.70;;;;;;;18.10;92.45;98325.75;5029885;28;20052;-60
2022/08/21 03:52:18;;;;;;;2.28;1.10;;;;;;;17.76;94.21;98321.41;5057206;28;20049;-59
2022/08/21 03:55:03;;;;;;;2.05;0.90;;;;;;;17.44;96.40;98328.28;5029368;28;20422;-60
2022/08/21 03:57:48;;;;;;;1.08;0.80;;;;;;;17.54;96.53;98330.81;5066808;28;20037;-60
2022/08/21 04:00:33;;;;;;;3.58;1.10;;;;;;;18.28;92.34;98321.34;5030474;28;20092;-59
2022/08/21 04:03:19;;;;;;;1.02;0.70;;;;;;;18.33;91.33;98332.25;5057031;28;20063;-60
2022/08/21 04:06:05;;;;;;;2.28;0.80;;;;;;;17.97;92.48;98336.84;5028943;28;20033;-59
2022/08/21 04:08:49;;;;;;;1.25;0.85;;;;;;;16.94;99.73;98334.16;5030867;28;20056;-60
2022/08/21 04:11:34;;;;;;;1.20;1.00;;;;;;;16.60;100.00;98333.13;5030130;28;20042;-61
2022/08/21 04:14:19;;;;;;;1.30;0.88;;;;;;;16.65;100.00;98323.91;5039522;28;20447;-61
2022/08/21 04:17:04;;;;;;;1.80;0.95;;;;;;;16.53;100.00;98321.53;5015852;28;20208;-59
2022/08/21 04:19:49;;;;;;;1.40;0.90;;;;;;;16.38;100.00;98324.75;5030760;28;20044;-58
2022/08/21 04:22:33;;;;;;;1.55;1.20;;;;;;;16.35;100.00;98321.56;5029165;28;20133;-57
2022/08/21 04:25:22;;;;;;;1.67;1.10;;;;;;;16.40;100.00;98331.66;5030074;28;20044;-58
2022/08/21 04:28:06;;;;;;;2.05;0.90;;;;;;;16.42;100.00;98335.00;5028670;28;20061;-58
2022/08/21 04:30:52;;;;;;;1.10;0.90;;;;;;;16.35;100.00;98334.78;5069125;28;20033;-60
2022/08/21 04:33:36;;;;;;;1.65;1.10;;;;;;;16.40;100.00;98344.88;5049551;28;20033;-58
2022/08/21 04:36:22;;;;;;;1.10;0.93;;;;;;;16.39;100.00;98338.75;5041740;28;20099;-58
2022/08/21 04:39:06;;;;;;;2.65;0.98;;;;;;;16.50;100.00;98357.03;5033426;28;20050;-58
2022/08/21 04:41:51;;;;;;;2.00;0.88;;;;;;;16.55;100.00;98348.63;5032948;28;20052;-59
2022/08/21 04:44:35;;;;;;;1.60;0.85;;;;;;;16.47;100.00;98351.19;5033425;28;20033;-59
2022/08/21 04:47:21;;;;;;;1.20;0.77;;;;;;;16.63;100.00;98361.91;5060842;28;20042;-60
2022/08/21 04:50:06;;;;;;;1.30;0.90;;;;;;;16.68;100.00;98353.50;5049612;28;20060;-60
2022/08/21 04:52:51;;;;;;;2.72;0.80;;;;;;;16.61;100.00;98360.41;5038912;28;20041;-60
2022/08/21 04:55:37;;;;;;;0.85;0.70;;;;;;;16.50;100.00;98366.75;5018696;28;20067;-59
2022/08/21 04:58:25;;;;;;;1.75;0.82;;;;;;;16.43;100.00;98353.34;5046520;28;20052;-60
2022/08/21 05:01:15;;;;;;;1.13;0.90;;;;;;;16.39;100.00;98357.25;5047722;28;20047;-58
2022/08/21 05:04:04;;;;;;;1.98;1.10;;;;;;;16.38;100.00;98367.03;5045281;28;20037;-59
2022/08/21 05:06:50;;;;;;;1.42;0.80;;;;;;;16.50;100.00;98366.75;5032653;28;20045;-59
2022/08/21 05:09:37;;;;;;;2.25;0.90;;;;;;;16.38;100.00;98356.44;5038330;28;20090;-60
2022/08/21 05:12:22;;;;;;;1.40;1.00;;;;;;;16.41;100.00;98362.41;5061609;28;20647;-59
2022/08/21 05:15:08;;;;;;;1.95;1.00;;;;;;;16.44;100.00;98355.00;5031641;28;20125;-60
2022/08/21 05:17:53;;;;;;;1.33;0.90;;;;;;;16.54;100.00;98357.56;5032281;28;20061;-58
2022/08/21 05:20:38;;;;;;;1.92;1.08;;;;;;;16.41;100.00;98363.22;5034537;28;20040;-60
2022/08/21 05:23:22;;;;;;;1.75;1.00;;;;;;;16.54;100.00;98365.47;5037671;28;20510;-58
2022/08/21 05:26:07;;;;;;;1.30;0.70;;;;;;;16.75;100.00;98361.66;5046120;28;20388;-59
2022/08/21 05:28:52;;;;;;;1.52;1.13;;;;;;;17.93;99.62;98361.19;5033900;28;20038;-61
2022/08/21 05:31:37;;;;;;;1.77;1.20;;;;;;;19.12;92.18;98368.00;5059361;28;20473;-62
2022/08/21 05:34:23;;;;;;;1.40;1.00;;;;;;;18.95;89.65;98364.50;5043020;28;20099;-69
2022/08/21 05:37:10;;;;;;;1.80;1.00;;;;;;;19.18;90.26;98362.00;5044331;28;20040;-68
2022/08/21 05:39:55;;;;;;;1.50;0.90;;;;;;;18.99;88.77;98362.34;5049449;28;20037;-66
2022/08/21 05:42:40;;;;;;;3.20;0.88;;;;;;;19.19;87.37;98357.53;5038846;28;20448;-65
2022/08/21 05:45:29;;;;;;;1.40;0.90;;;;;;;18.69;89.64;98357.59;5031171;28;20068;-68
2022/08/21 05:48:24;;;;;;;1.30;0.80;;;;;;;18.77;90.28;98343.50;5033227;28;20047;-68
2022/08/21 05:51:12;;;;;;;2.85;0.93;;;;;;;18.83;89.91;98364.84;5038880;28;20116;-71
2022/08/21 05:53:57;;;;;;;1.30;0.90;;;;;;;19.79;90.38;98367.69;5032840;28;20025;-70
2022/08/21 05:56:44;;;;;;;1.17;0.73;;;;;;;19.37;85.87;98367.06;5038014;28;20031;-66
2022/08/21 05:59:33;;;;;;;1.52;0.65;;;;;;;19.54;84.54;98371.31;5044613;28;20124;-68
2022/08/21 06:02:18;;;;;;;4.25;1.10;;;;;;;19.35;86.81;98359.28;5045363;28;20397;-67
2022/08/21 06:05:04;;;;;;;1.30;0.80;;;;;;;19.63;83.36;98363.31;5032407;28;20037;-66
2022/08/21 06:07:48;;;;;;;1.52;0.63;;;;;;;19.52;85.02;98373.31;5031278;28;20038;-68
2022/08/21 06:10:33;;;;;;;1.05;0.68;;;;;;;19.63;85.67;98365.97;5031056;28;20038;-69
2022/08/21 06:13:19;;;;;;;1.23;1.00;;;;;;;20.48;80.00;98344.81;5048145;28;20044;-71
2022/08/21 06:16:09;;;;;;;2.20;0.80;;;;;;;20.58;80.29;98352.50;5038684;28;20029;-68
2022/08/21 06:18:54;;;;;;;1.02;0.68;;;;;;;20.34;79.63;98359.72;5037570;28;20041;-69
2022/08/21 06:21:39;;;;;;;1.42;0.80;;;;;;;20.34;78.81;98358.88;5034988;28;20041;-69
2022/08/21 06:24:24;;;;;;;1.33;0.47;;;;;;;20.19;79.15;98359.66;5031252;28;20043;-69
2022/08/21 06:27:09;;;;;;;1.20;0.70;;;;;;;20.02;80.14;98350.94;5031870;28;20061;-70
2022/08/21 06:29:53;;;;;;;2.78;0.68;;;;;;;20.61;77.56;98362.81;5051705;28;20041;-73
2022/08/21 06:32:39;;;;;;;0.68;0.50;;;;;;;20.05;80.35;98355.94;4998092;28;20048;-69
2022/08/21 06:35:28;;;;;;;0.75;0.60;;;;;;;20.36;79.58;98360.38;5037303;28;20038;-71
2022/08/21 06:38:16;;;;;;;3.80;1.00;;;;;;;20.73;79.55;98359.72;5036088;28;20037;-68
2022/08/21 06:41:00;;;;;;;0.75;0.60;;;;;;;20.87;76.18;98361.56;5033233;28;20041;-68
2022/08/21 06:43:45;;;;;;;0.75;0.40;;;;;;;20.94;75.62;98359.03;5038702;28;20388;-66
2022/08/21 06:46:31;;;;;;;0.52;0.43;;;;;;;21.39;73.60;98355.53;5035157;28;20484;-68
2022/08/21 06:49:15;;;;;;;1.48;0.60;;;;;;;21.33;76.16;98365.06;5060433;28;20053;-70
2022/08/21 06:52:01;;;;;;;0.95;0.52;;;;;;;22.41;71.42;98352.06;5027005;28;20056;-73
2022/08/21 06:54:47;;;;;;;0.73;0.43;;;;;;;21.60;71.38;98353.91;5061391;28;20045;-71
2022/08/21 06:57:31;;;;;;;0.77;0.47;;;;;;;21.20;73.56;98340.94;5039361;28;20068;-73
2022/08/21 07:00:16;;;;;;;0.70;0.60;;;;;;;21.67;72.36;98363.63;5018835;28;20045;-71
2022/08/21 07:03:02;;;;;;;1.40;0.45;;;;;;;22.28;69.34;98342.97;5039520;28;20123;-69
2022/08/21 07:05:46;;;;;;;1.38;0.68;;;;;;;20.86;74.58;98364.41;5033750;28;20036;-70
2022/08/21 07:08:31;;;;;;;1.50;0.47;;;;;;;20.79;76.02;98354.47;5031909;28;20357;-71
2022/08/21 07:11:21;;;;;;;0.85;0.45;;;;;;;20.82;74.78;98342.66;5032065;28;20048;-71
2022/08/21 07:14:06;;;;;;;0.70;0.50;;;;;;;20.62;76.41;98355.66;5043440;28;20040;-71
2022/08/21 07:16:54;;;;;;;2.00;0.80;;;;;;;20.76;75.75;98362.03;5031347;28;20113;-70
2022/08/21 07:19:39;;;;;;;1.48;0.70;;;;;;;21.81;70.96;98363.00;5026509;28;20041;-72
2022/08/21 07:22:27;;;;;;;0.98;0.50;;;;;;;21.57;71.05;98352.47;5028845;28;20481;-70
2022/08/21 07:25:11;;;;;;;0.60;0.40;;;;;;;20.90;74.73;98368.34;5045398;28;20036;-69
2022/08/21 07:27:56;;;;;;;1.33;0.60;;;;;;;21.02;74.25;98374.91;5028726;28;20045;-69
2022/08/21 07:30:41;;;;;;;1.60;0.60;;;;;;;20.91;74.72;98370.00;5033300;28;20116;-70
2022/08/21 07:33:28;;;;;;;0.77;0.55;;;;;;;21.19;73.87;98368.56;5045814;28;20033;-70
2022/08/21 07:36:13;;;;;;;0.85;0.55;;;;;;;21.30;72.73;98370.78;5038070;28;20030;-70
2022/08/21 07:38:58;;;;;;;0.88;0.60;;;;;;;21.28;73.28;98365.63;5030262;28;20037;-71
2022/08/21 07:41:42;;;;;;;1.27;0.70;;;;;;;21.33;72.46;98357.06;5016179;28;20393;-70
2022/08/21 07:44:27;;;;;;;0.95;0.52;;;;;;;21.28;73.04;98354.16;5030203;28;20095;-69
2022/08/21 07:47:12;;;;;;;0.88;0.47;;;;;;;21.05;73.87;98357.75;5030242;28;20033;-70
2022/08/21 07:49:57;;;;;;;0.40;0.30;;;;;;;20.97;74.26;98361.31;5030858;28;20053;-71
2022/08/21 07:52:42;;;;;;;0.73;0.40;;;;;;;20.80;74.86;98364.13;5030896;28;20060;-70
2022/08/21 07:55:28;;;;;;;0.95;0.57;;;;;;;20.79;74.80;98351.81;5030998;28;20052;-70
2022/08/21 07:58:12;;;;;;;0.90;0.50;;;;;;;20.57;75.61;98356.19;5030532;28;20384;-70
2022/08/21 08:00:58;;;;;;;0.90;0.52;;;;;;;20.50;76.64;98352.63;5030083;28;20050;-70
2022/08/21 08:03:43;;;;;;;0.73;0.50;;;;;;;20.12;78.06;98335.63;5070039;28;20108;-70
2022/08/21 08:06:30;;;;;;;2.03;0.43;;;;;;;20.18;78.22;98352.69;5031131;28;20037;-70
2022/08/21 08:09:15;;;;;;;0.73;0.45;;;;;;;20.08;78.29;98347.59;5044150;28;20098;-71
2022/08/21 08:12:00;;;;;;;1.10;0.60;;;;;;;20.73;76.24;98336.59;5038348;28;20040;-70
2022/08/21 08:14:44;;;;;;;0.82;0.45;;;;;;;20.72;76.06;98344.75;5054663;28;20037;-70
2022/08/21 08:17:31;;;;;;;1.15;0.60;;;;;;;21.33;73.63;98325.13;5019603;28;20050;-70
2022/08/21 08:20:18;;;;;;;1.77;0.60;;;;;;;21.99;70.50;98327.91;5032496;28;20072;-70
2022/08/21 08:23:02;;;;;;;0.63;0.40;;;;;;;22.18;69.33;98326.44;5034634;28;20084;-70
2022/08/21 08:25:47;;;;;;;1.58;0.52;;;;;;;22.25;69.23;98313.16;5042562;28;20469;-70
2022/08/21 08:28:34;;;;;;;0.95;0.60;;;;;;;22.04;69.45;98320.16;5006146;28;20037;-72
2022/08/21 08:31:23;;;;;;;3.25;0.77;;;;;;;21.56;71.14;98328.69;5034784;28;20116;-73
2022/08/21 08:34:21;;;;;;;1.00;0.63;;;;;;;21.36;72.16;98310.63;5045295;28;20049;-69
2022/08/21 08:37:08;;;;;;;4.18;0.60;;;;;;;21.51;72.46;98321.25;5039026;28;20049;-69
2022/08/21 08:39:53;;;;;;;1.00;0.60;;;;;;;21.84;71.20;98328.78;5037995;28;20049;-71
2022/08/21 08:42:39;;;;;;;1.00;0.75;;;;;;;21.57;71.75;98323.16;5019206;28;20384;-71
2022/08/21 08:45:30;;;;;;;1.20;0.70;;;;;;;21.34;72.66;98329.44;5034114;28;20041;-71
2022/08/21 08:48:35;;;;;;;1.02;0.80;;;;;;;21.01;74.47;98336.00;5036846;28;20053;-70
2022/08/21 08:51:39;;;;;;;0.93;0.73;;;;;;;21.21;73.77;98331.94;5037102;28;20416;-70
2022/08/21 08:54:49;;;;;;;1.15;0.70;;;;;;;21.07;74.72;98341.59;5033679;28;20037;-71
2022/08/21 08:57:39;;;;;;;1.88;0.90;;;;;;;20.94;75.37;98344.91;5005875;28;20480;-71
2022/08/21 09:00:24;;;;;;;1.50;0.70;;;;;;;20.47;78.59;98351.13;5032935;28;20132;-71
2022/08/21 09:03:11;;;;;;;1.20;0.88;;;;;;;20.21;82.32;98343.53;5032646;28;20052;-70
2022/08/21 09:06:20;;;;;;;1.50;1.10;;;;;;;20.41;81.70;98339.38;5034626;28;20037;-71
2022/08/21 09:09:29;;;;;;;1.20;0.95;;;;;;;20.86;80.04;98345.78;5017891;28;20049;-72
2022/08/21 09:12:24;;;;;;;1.70;1.05;;;;;;;20.34;85.33;98334.94;5043202;28;20052;-70
2022/08/21 09:15:24;;;;;;;2.63;1.10;;;;;;;21.12;80.22;98341.88;5036414;28;20033;-72
2022/08/21 09:18:38;;;;;;;5.43;1.33;;;;;;;21.02;88.43;98337.63;5034185;28;20049;-75
2022/08/21 09:21:23;;;;;;;2.00;0.77;;;;;;;21.61;77.84;98348.41;5039394;28;20487;-68
2022/08/21 09:24:20;;;;;;;1.20;0.80;;;;;;;20.73;81.81;98352.53;5037705;28;20041;-70
2022/08/21 09:27:09;;;;;;;1.73;1.10;;;;;;;20.84;85.66;98363.75;5042854;28;20102;-71
2022/08/21 09:29:54;;;;;;;1.55;0.93;;;;;;;20.30;84.79;98353.91;5042117;28;20496;-67
2022/08/21 09:32:42;;;;;;;2.45;1.27;;;;;;;20.27;87.90;98356.94;5048775;28;20106;-67
2022/08/21 09:35:29;;;;;;;74.60;16.98;;;;;;;21.00;84.90;98354.81;5045448;28;20045;-68
2022/08/21 09:38:32;;;;;;;31.95;7.25;;;;;;;21.47;81.75;98343.94;5032143;28;20118;-69
2022/08/21 09:41:27;;;;;;;4.07;1.42;;;;;;;21.32;81.68;98338.63;5032123;28;20116;-68
2022/08/21 09:44:12;;;;;;;3.95;1.55;;;;;;;21.06;82.20;98338.09;5038742;28;20045;-68
2022/08/21 09:47:00;;;;;;;19.80;2.72;;;;;;;21.29;83.71;98332.69;5043876;28;20045;-71
2022/08/21 09:49:49;;;;;;;3.97;1.55;;;;;;;21.52;78.74;98328.22;5060851;28;20132;-74
2022/08/21 09:52:34;;;;;;;1.38;0.82;;;;;;;21.41;78.55;98311.69;5032299;28;20038;-72
2022/08/21 09:58:44;;;;;;;1.93;0.70;;;;;;;21.25;78.85;98327.91;5032653;28;20041;-69
2022/08/21 10:01:29;;;;;;;1.17;0.63;;;;;;;21.27;76.55;98328.53;5039590;28;20033;-69
2022/08/21 10:04:14;;;;;;;0.98;0.60;;;;;;;21.42;76.36;98329.34;5038746;28;20033;-70
2022/08/21 10:07:10;;;;;;;1.05;0.50;;;;;;;21.03;78.46;98325.16;5054674;28;20827;-69
2022/08/21 10:10:15;;;;;;;1.95;0.77;;;;;;;20.36;79.74;98328.44;5062283;28;20056;-73
2022/08/21 10:13:14;;;;;;;0.80;0.52;;;;;;;20.91;78.27;98332.72;5044109;28;20050;-74
2022/08/21 10:16:10;;;;;;;1.15;0.70;;;;;;;21.38;76.08;98330.72;5051046;28;20133;-70
2022/08/21 10:19:08;;;;;;;1.00;0.60;;;;;;;21.13;77.58;98314.22;5035251;28;20391;-69
2022/08/21 10:22:21;;;;;;;1.20;0.80;;;;;;;21.08;77.91;98316.63;5036727;28;20044;-70
2022/08/21 10:25:20;;;;;;;1.85;0.77;;;;;;;21.17;77.91;98326.16;5031835;28;20049;-73
2022/08/21 10:28:32;;;;;;;1.98;0.60;;;;;;;21.67;75.25;98331.66;5040989;28;20049;-69
2022/08/21 10:31:37;;;;;;;;;;;;;;;21.78;74.78;98322.41;5040919;28;20040;-73
2022/08/21 10:34:36;;;;;;;1.02;0.70;;;;;;;21.73;77.77;98316.78;5031408;28;19917;-67
2022/08/21 10:38:04;;;;;;;3.70;0.70;;;;;;;22.10;74.16;98311.41;5044783;28;20041;-68
2022/08/21 10:41:01;;;;;;;1.75;0.80;;;;;;;22.45;72.17;98307.16;5054016;28;20045;-68
2022/08/21 10:44:08;;;;;;;0.90;0.55;;;;;;;22.12;72.59;98304.03;5031789;28;20049;-70
2022/08/21 10:47:12;;;;;;;1.65;0.50;;;;;;;22.02;73.04;98312.38;5030771;28;20382;-71
2022/08/21 10:50:24;;;;;;;1.13;0.60;;;;;;;21.35;75.38;98304.44;5033101;28;20065;-74
2022/08/21 10:54:00;;;;;;;1.77;0.50;;;;;;;21.44;75.18;98315.00;5070475;28;20041;-67
2022/08/21 10:56:50;;;;;;;1.15;0.60;;;;;;;20.85;77.49;98309.53;5034439;28;20071;-68
2022/08/21 10:59:47;;;;;;;0.85;0.60;;;;;;;21.52;75.27;98306.91;5044256;28;20467;-67
2022/08/21 11:02:46;;;;;;;1.10;0.60;;;;;;;21.10;75.70;98291.47;5033299;28;20045;-68
2022/08/21 11:05:35;;;;;;;0.60;0.40;;;;;;;21.42;75.07;98302.72;5043089;28;20040;-67
2022/08/21 11:08:30;;;;;;;0.88;0.40;;;;;;;21.60;73.71;98298.81;5031107;28;20049;-68
2022/08/21 11:11:22;;;;;;;0.82;0.50;;;;;;;21.59;73.38;98307.78;5029891;28;20064;-70
2022/08/21 11:14:33;;;;;;;0.50;0.30;;;;;;;21.78;72.57;98310.91;5032489;28;20045;-68
2022/08/21 11:17:24;;;;;;;0.60;0.30;;;;;;;22.17;71.08;98321.28;5031495;28;20037;-67
2022/08/21 11:20:17;;;;;;;0.40;0.28;;;;;;;22.04;71.20;98314.84;5032041;28;20045;-67
2022/08/21 11:23:47;;;;;;;0.30;0.20;;;;;;;22.34;69.37;98313.88;5041171;28;20130;-68
2022/08/21 11:26:41;;;;;;;0.88;0.30;;;;;;;22.02;70.82;98317.69;5017685;28;20048;-65
2022/08/21 11:29:34;;;;;;;0.47;0.20;;;;;;;22.51;68.78;98304.56;5034706;28;20465;-68
2022/08/21 11:32:50;;;;;;;0.55;0.20;;;;;;;21.86;70.58;98317.94;5037612;28;20030;-67
2022/08/21 11:35:35;;;;;;;0.55;0.22;;;;;;;22.10;69.67;98319.41;5032317;28;20045;-68
2022/08/21 11:38:28;;;;;;;0.40;0.15;;;;;;;21.77;70.41;98314.56;5032219;28;20046;-66
2022/08/21 11:41:25;;;;;;;0.38;0.10;;;;;;;21.61;70.68;98307.63;5031499;28;20043;-67
2022/08/21 11:44:27;;;;;;;0.20;0.13;;;;;;;21.80;70.63;98308.88;5036005;28;20034;-68
2022/08/21 11:47:28;;;;;;;0.30;0.20;;;;;;;21.44;71.59;98326.50;5063005;28;20038;-68
2022/08/21 11:50:28;;;;;;;2.50;0.10;;;;;;;21.56;71.81;98320.69;5036715;28;20057;-68
2022/08/21 11:53:21;;;;;;;1.40;0.20;;;;;;;21.52;72.04;98330.88;5051854;28;20045;-69
2022/08/21 11:56:21;;;;;;;0.30;0.20;;;;;;;21.68;71.06;98316.50;5048769;28;20041;-68
2022/08/21 11:59:11;;;;;;;0.70;0.20;;;;;;;21.35;72.31;98330.28;5047359;28;20072;-67
2022/08/21 12:01:56;;;;;;;0.40;0.20;;;;;;;21.02;73.47;98320.84;5054483;28;20045;-68
2022/08/21 12:05:06;;;;;;;0.30;0.20;;;;;;;20.89;74.28;98324.13;5043583;28;20044;-68
2022/08/21 12:08:02;;;;;;;0.43;0.15;;;;;;;20.94;74.18;98315.63;5044440;28;20321;-68
2022/08/21 12:11:17;;;;;;;0.63;0.20;;;;;;;20.89;74.60;98321.47;5037957;28;20033;-68
2022/08/21 12:14:05;;;;;;;0.65;0.40;;;;;;;21.13;74.62;98325.72;5033529;28;20468;-67
2022/08/21 12:16:50;;;;;;;0.60;0.35;;;;;;;20.99;76.55;98322.03;5033819;28;20056;-68
2022/08/21 12:19:35;;;;;;;1.05;0.40;;;;;;;20.92;77.82;98334.44;5033831;28;20042;-68
2022/08/21 12:22:20;;;;;;;1.35;0.40;;;;;;;20.92;78.30;98318.47;5035012;28;20041;-68
2022/08/21 12:25:15;;;;;;;0.60;0.40;;;;;;;20.83;79.30;98320.34;5052403;28;20481;-67
2022/08/21 12:28:08;;;;;;;0.60;0.30;;;;;;;21.44;76.44;98318.50;5049254;28;20068;-69
2022/08/21 12:30:53;;;;;;;0.45;0.30;;;;;;;21.48;74.86;98318.97;5028682;28;20036;-69
2022/08/21 12:33:40;;;;;;;0.40;0.35;;;;;;;21.67;74.18;98325.53;5021737;28;20041;-67
2022/08/21 12:37:21;;;;;;;0.38;0.30;;;;;;;21.80;73.02;98318.72;5034218;28;20042;-68
2022/08/21 12:40:38;;;;;;;0.40;0.20;;;;;;;21.67;72.41;98320.19;5011408;28;20482;-69
2022/08/21 12:43:35;;;;;;;0.40;0.30;;;;;;;21.92;71.88;98327.03;5035342;28;20105;-68
2022/08/21 12:46:26;;;;;;;0.30;0.30;;;;;;;21.98;71.13;98327.09;5032558;28;20041;-69
2022/08/21 12:49:16;;;;;;;;;;;;;;;22.39;68.40;98322.91;5033396;28;20076;-69
2022/08/21 12:52:29;;;;;;;0.95;0.20;;;;;;;22.46;66.83;98320.31;5043304;28;20358;-68
2022/08/21 12:55:25;;;;;;;0.30;0.15;;;;;;;22.12;67.52;98320.03;5050011;28;20057;-69
2022/08/21 12:58:24;;;;;;;0.22;0.10;;;;;;;22.09;67.54;98322.25;5038790;28;20109;-69
2022/08/21 13:01:27;;;;;;;0.75;0.30;;;;;;;22.03;67.72;98327.34;5042604;28;20389;-68
2022/08/21 13:04:17;;;;;;;0.10;0.10;;;;;;;22.98;64.28;98329.94;5034037;28;20044;-69
2022/08/21 13:07:07;;;;;;;0.55;0.30;;;;;;;22.73;64.61;98328.56;5039706;28;20045;-70
2022/08/21 13:09:58;;;;;;;0.40;0.13;;;;;;;23.10;63.16;98333.69;5032479;28;20053;-69
2022/08/21 13:12:44;;;;;;;0.68;0.30;;;;;;;22.38;64.96;98339.97;5050417;28;20116;-68
2022/08/21 13:15:33;;;;;;;0.40;0.20;;;;;;;21.98;66.77;98342.28;5040743;28;20044;-70
2022/08/21 13:18:24;;;;;;;0.70;0.40;;;;;;;22.08;65.35;98336.63;5035842;28;20476;-69
2022/08/21 13:21:13;;;;;;;0.37;0.20;;;;;;;21.38;67.85;98332.56;5031530;28;20369;-68